sensor_id;sensor_type;location;lat;lon;timestamp;P1;durP1;ratioP1;P2;durP2;ratioP2
5416;SDS011;2731;50.754;12.990;2023-09-08T04:19:10;9.90;;;6.32;;
5416;SDS011;2731;50.754;12.990;2023-09-08T04:21:55;8.05;;;5.88;;
5416;SDS011;2731;50.754;12.990;2023-09-08T04:24:42;9.05;;;5.50;;
5416;SDS011;2731;50.754;12.990;2023-09-08T04:33:55;8.43;;;5.75;;
5416;SDS011;2731;50.754;12.990;2023-09-08T04:41:25;7.65;;;5.97;;
5416;SDS011;2731;50.754;12.990;2023-09-08T04:52:48;7.47;;;5.55;;
5416;SDS011;2731;50.754;12.990;2023-09-08T04:59:24;8.95;;;5.80;;
5416;SDS011;2731;50.754;12.990;2023-09-08T05:03:44;6.45;;;5.57;;
5416;SDS011;2731;50.754;12.990;2023-09-08T05:11:08;6.88;;;5.47;;
5416;SDS011;2731;50.754;12.990;2023-09-08T05:13:58;8.80;;;6.30;;
5416;SDS011;2731;50.754;12.990;2023-09-08T05:16:44;9.20;;;6.63;;
5416;SDS011;2731;50.754;12.990;2023-09-08T05:19:34;7.45;;;6.03;;
5416;SDS011;2731;50.754;12.990;2023-09-08T05:22:23;6.60;;;5.88;;
5416;SDS011;2731;50.754;12.990;2023-09-08T05:25:09;7.90;;;6.15;;
5416;SDS011;2731;50.754;12.990;2023-09-08T05:27:54;9.82;;;5.32;;
5416;SDS011;2731;50.754;12.990;2023-09-08T05:30:40;9.57;;;6.40;;
5416;SDS011;2731;50.754;12.990;2023-09-08T05:33:27;9.07;;;6.88;;
5416;SDS011;2731;50.754;12.990;2023-09-08T05:36:14;9.82;;;6.63;;
5416;SDS011;2731;50.754;12.990;2023-09-08T05:39:01;7.90;;;6.00;;
5416;SDS011;2731;50.754;12.990;2023-09-08T05:41:48;10.43;;;6.75;;
5416;SDS011;2731;50.754;12.990;2023-09-08T05:44:33;8.93;;;6.45;;
5416;SDS011;2731;50.754;12.990;2023-09-08T05:47:20;7.63;;;5.88;;
5416;SDS011;2731;50.754;12.990;2023-09-08T05:50:07;19.58;;;6.45;;
5416;SDS011;2731;50.754;12.990;2023-09-08T05:52:53;10.38;;;6.18;;
5416;SDS011;2731;50.754;12.990;2023-09-08T05:55:40;10.18;;;6.22;;
5416;SDS011;2731;50.754;12.990;2023-09-08T05:58:26;9.25;;;6.72;;
5416;SDS011;2731;50.754;12.990;2023-09-08T06:01:15;8.90;;;6.10;;
5416;SDS011;2731;50.754;12.990;2023-09-08T06:04:04;7.47;;;6.07;;
5416;SDS011;2731;50.754;12.990;2023-09-08T06:06:53;10.15;;;6.50;;
5416;SDS011;2731;50.754;12.990;2023-09-08T06:09:40;10.40;;;6.40;;
5416;SDS011;2731;50.754;12.990;2023-09-08T06:12:28;8.45;;;6.10;;
5416;SDS011;2731;50.754;12.990;2023-09-08T06:18:20;7.18;;;5.63;;
5416;SDS011;2731;50.754;12.990;2023-09-08T06:21:08;6.70;;;5.40;;
5416;SDS011;2731;50.754;12.990;2023-09-08T06:23:53;8.82;;;5.82;;
5416;SDS011;2731;50.754;12.990;2023-09-08T06:26:40;7.97;;;6.30;;
5416;SDS011;2731;50.754;12.990;2023-09-08T06:29:27;8.68;;;5.85;;
5416;SDS011;2731;50.754;12.990;2023-09-08T06:31:56;7.70;;;5.78;;
5416;SDS011;2731;50.754;12.990;2023-09-08T06:34:25;6.13;;;5.30;;
5416;SDS011;2731;50.754;12.990;2023-09-08T06:36:56;7.57;;;5.47;;
5416;SDS011;2731;50.754;12.990;2023-09-08T06:39:25;8.25;;;5.75;;
5416;SDS011;2731;50.754;12.990;2023-09-08T06:42:12;7.35;;;5.47;;
5416;SDS011;2731;50.754;12.990;2023-09-08T06:44:57;9.00;;;5.55;;
5416;SDS011;2731;50.754;12.990;2023-09-08T06:47:44;8.05;;;5.35;;
5416;SDS011;2731;50.754;12.990;2023-09-08T06:50:31;6.30;;;4.55;;
5416;SDS011;2731;50.754;12.990;2023-09-08T06:53:17;7.70;;;4.93;;
5416;SDS011;2731;50.754;12.990;2023-09-08T06:56:05;6.90;;;4.82;;
5416;SDS011;2731;50.754;12.990;2023-09-08T06:58:52;7.45;;;5.68;;
5416;SDS011;2731;50.754;12.990;2023-09-08T07:01:21;6.53;;;5.13;;
5416;SDS011;2731;50.754;12.990;2023-09-08T07:04:08;7.13;;;4.68;;
5416;SDS011;2731;50.754;12.990;2023-09-08T07:09:51;8.65;;;5.13;;
5416;SDS011;2731;50.754;12.990;2023-09-08T07:12:40;12.50;;;4.55;;
5416;SDS011;2731;50.754;12.990;2023-09-08T07:15:28;7.93;;;4.85;;
5416;SDS011;2731;50.754;12.990;2023-09-08T07:18:15;6.45;;;4.65;;
5416;SDS011;2731;50.754;12.990;2023-09-08T07:21:02;7.43;;;5.60;;
5416;SDS011;2731;50.754;12.990;2023-09-08T07:23:33;7.00;;;4.57;;
5416;SDS011;2731;50.754;12.990;2023-09-08T07:26:31;9.00;;;5.18;;
5416;SDS011;2731;50.754;12.990;2023-09-08T07:29:18;6.30;;;4.68;;
5416;SDS011;2731;50.754;12.990;2023-09-08T07:32:02;6.13;;;4.50;;
5416;SDS011;2731;50.754;12.990;2023-09-08T07:34:49;5.43;;;4.80;;
5416;SDS011;2731;50.754;12.990;2023-09-08T07:37:38;8.98;;;4.88;;
5416;SDS011;2731;50.754;12.990;2023-09-08T07:40:34;6.55;;;4.90;;
5416;SDS011;2731;50.754;12.990;2023-09-08T07:43:22;7.28;;;4.68;;
5416;SDS011;2731;50.754;12.990;2023-09-08T07:46:12;10.25;;;5.43;;
5416;SDS011;2731;50.754;12.990;2023-09-08T07:48:59;6.07;;;4.30;;
5416;SDS011;2731;50.754;12.990;2023-09-08T07:51:27;7.32;;;5.30;;
5416;SDS011;2731;50.754;12.990;2023-09-08T07:54:13;5.57;;;3.97;;
5416;SDS011;2731;50.754;12.990;2023-09-08T07:56:58;5.43;;;4.03;;
5416;SDS011;2731;50.754;12.990;2023-09-08T07:59:45;9.20;;;5.10;;
5416;SDS011;2731;50.754;12.990;2023-09-08T08:02:32;7.63;;;4.70;;
5416;SDS011;2731;50.754;12.990;2023-09-08T08:05:18;6.63;;;3.88;;
5416;SDS011;2731;50.754;12.990;2023-09-08T08:07:50;6.18;;;4.47;;
5416;SDS011;2731;50.754;12.990;2023-09-08T08:10:28;6.68;;;4.35;;
5416;SDS011;2731;50.754;12.990;2023-09-08T08:13:03;7.45;;;4.45;;
5416;SDS011;2731;50.754;12.990;2023-09-08T08:15:37;5.32;;;4.18;;
5416;SDS011;2731;50.754;12.990;2023-09-08T08:18:05;6.70;;;3.95;;
5416;SDS011;2731;50.754;12.990;2023-09-08T08:21:02;5.75;;;4.03;;
5416;SDS011;2731;50.754;12.990;2023-09-08T08:23:49;9.15;;;4.50;;
5416;SDS011;2731;50.754;12.990;2023-09-08T08:26:36;6.47;;;3.92;;
5416;SDS011;2731;50.754;12.990;2023-09-08T08:29:21;5.53;;;3.97;;
5416;SDS011;2731;50.754;12.990;2023-09-08T08:32:00;7.15;;;4.55;;
5416;SDS011;2731;50.754;12.990;2023-09-08T08:34:28;5.10;;;3.65;;
5416;SDS011;2731;50.754;12.990;2023-09-08T08:36:55;4.60;;;3.75;;
5416;SDS011;2731;50.754;12.990;2023-09-08T08:39:23;5.75;;;4.32;;
5416;SDS011;2731;50.754;12.990;2023-09-08T08:42:10;6.18;;;3.95;;
5416;SDS011;2731;50.754;12.990;2023-09-08T08:44:57;7.18;;;4.20;;
5416;SDS011;2731;50.754;12.990;2023-09-08T08:47:43;7.38;;;3.75;;
5416;SDS011;2731;50.754;12.990;2023-09-08T08:50:28;7.00;;;4.20;;
5416;SDS011;2731;50.754;12.990;2023-09-08T08:53:17;7.38;;;4.07;;
5416;SDS011;2731;50.754;12.990;2023-09-08T08:56:06;5.13;;;3.83;;
5416;SDS011;2731;50.754;12.990;2023-09-08T08:58:53;5.78;;;3.92;;
5416;SDS011;2731;50.754;12.990;2023-09-08T09:01:38;7.15;;;3.90;;
5416;SDS011;2731;50.754;12.990;2023-09-08T09:04:25;5.15;;;3.92;;
5416;SDS011;2731;50.754;12.990;2023-09-08T09:07:11;4.40;;;3.33;;
5416;SDS011;2731;50.754;12.990;2023-09-08T09:12:09;6.22;;;3.83;;
5416;SDS011;2731;50.754;12.990;2023-09-08T09:14:36;5.07;;;3.10;;
5416;SDS011;2731;50.754;12.990;2023-09-08T09:17:04;6.22;;;3.67;;
5416;SDS011;2731;50.754;12.990;2023-09-08T09:19:31;4.32;;;3.30;;
5416;SDS011;2731;50.754;12.990;2023-09-08T09:22:11;7.75;;;3.72;;
5416;SDS011;2731;50.754;12.990;2023-09-08T09:24:39;4.43;;;3.65;;
5416;SDS011;2731;50.754;12.990;2023-09-08T09:27:06;5.28;;;4.05;;
5416;SDS011;2731;50.754;12.990;2023-09-08T09:29:32;4.93;;;3.70;;
5416;SDS011;2731;50.754;12.990;2023-09-08T09:32:06;5.75;;;3.60;;
5416;SDS011;2731;50.754;12.990;2023-09-08T09:34:36;7.22;;;3.47;;
5416;SDS011;2731;50.754;12.990;2023-09-08T09:37:26;3.78;;;2.92;;
5416;SDS011;2731;50.754;12.990;2023-09-08T09:39:54;5.85;;;3.97;;
5416;SDS011;2731;50.754;12.990;2023-09-08T09:42:23;4.32;;;3.63;;
5416;SDS011;2731;50.754;12.990;2023-09-08T09:44:53;5.70;;;4.00;;
5416;SDS011;2731;50.754;12.990;2023-09-08T09:47:19;4.88;;;3.70;;
5416;SDS011;2731;50.754;12.990;2023-09-08T09:49:48;6.15;;;3.70;;
5416;SDS011;2731;50.754;12.990;2023-09-08T09:52:23;5.10;;;3.40;;
5416;SDS011;2731;50.754;12.990;2023-09-08T09:54:52;4.07;;;3.40;;
5416;SDS011;2731;50.754;12.990;2023-09-08T09:57:22;5.88;;;3.53;;
5416;SDS011;2731;50.754;12.990;2023-09-08T09:59:58;4.70;;;3.50;;
5416;SDS011;2731;50.754;12.990;2023-09-08T10:02:27;6.50;;;3.50;;
5416;SDS011;2731;50.754;12.990;2023-09-08T10:04:55;5.82;;;3.45;;
5416;SDS011;2731;50.754;12.990;2023-09-08T10:07:23;5.15;;;3.45;;
5416;SDS011;2731;50.754;12.990;2023-09-08T10:09:53;4.55;;;3.30;;
5416;SDS011;2731;50.754;12.990;2023-09-08T10:12:32;6.30;;;3.35;;
5416;SDS011;2731;50.754;12.990;2023-09-08T10:15:02;4.05;;;3.13;;
5416;SDS011;2731;50.754;12.990;2023-09-08T10:17:31;5.72;;;3.20;;
5416;SDS011;2731;50.754;12.990;2023-09-08T10:20:00;5.82;;;3.42;;
5416;SDS011;2731;50.754;12.990;2023-09-08T10:22:34;4.20;;;3.38;;
5416;SDS011;2731;50.754;12.990;2023-09-08T10:25:03;5.55;;;3.40;;
5416;SDS011;2731;50.754;12.990;2023-09-08T10:27:32;4.82;;;3.33;;
5416;SDS011;2731;50.754;12.990;2023-09-08T10:30:01;8.18;;;3.55;;
5416;SDS011;2731;50.754;12.990;2023-09-08T10:32:32;4.63;;;3.10;;
5416;SDS011;2731;50.754;12.990;2023-09-08T10:35:00;4.30;;;3.17;;
5416;SDS011;2731;50.754;12.990;2023-09-08T10:37:28;3.65;;;2.78;;
5416;SDS011;2731;50.754;12.990;2023-09-08T10:40:19;3.70;;;2.70;;
5416;SDS011;2731;50.754;12.990;2023-09-08T10:42:47;3.55;;;2.88;;
5416;SDS011;2731;50.754;12.990;2023-09-08T10:45:19;4.22;;;2.90;;
5416;SDS011;2731;50.754;12.990;2023-09-08T10:50:17;3.95;;;3.22;;
5416;SDS011;2731;50.754;12.990;2023-09-08T10:53:03;3.88;;;3.03;;
5416;SDS011;2731;50.754;12.990;2023-09-08T10:55:39;3.88;;;2.80;;
5416;SDS011;2731;50.754;12.990;2023-09-08T10:58:08;6.40;;;2.50;;
5416;SDS011;2731;50.754;12.990;2023-09-08T11:00:42;3.28;;;2.15;;
5416;SDS011;2731;50.754;12.990;2023-09-08T11:03:09;3.60;;;2.50;;
5416;SDS011;2731;50.754;12.990;2023-09-08T11:05:36;7.75;;;3.28;;
5416;SDS011;2731;50.754;12.990;2023-09-08T11:08:05;4.18;;;3.17;;
5416;SDS011;2731;50.754;12.990;2023-09-08T11:10:36;3.47;;;2.88;;
5416;SDS011;2731;50.754;12.990;2023-09-08T11:13:14;3.20;;;2.60;;
5416;SDS011;2731;50.754;12.990;2023-09-08T11:15:40;5.03;;;2.90;;
5416;SDS011;2731;50.754;12.990;2023-09-08T11:18:08;4.57;;;2.70;;
5416;SDS011;2731;50.754;12.990;2023-09-08T11:20:37;7.97;;;2.75;;
5416;SDS011;2731;50.754;12.990;2023-09-08T11:23:13;3.90;;;2.75;;
5416;SDS011;2731;50.754;12.990;2023-09-08T11:25:42;3.33;;;2.60;;
5416;SDS011;2731;50.754;12.990;2023-09-08T11:28:09;6.10;;;3.30;;
5416;SDS011;2731;50.754;12.990;2023-09-08T11:30:38;3.78;;;3.00;;
5416;SDS011;2731;50.754;12.990;2023-09-08T11:33:04;3.78;;;2.60;;
5416;SDS011;2731;50.754;12.990;2023-09-08T11:35:31;6.65;;;3.22;;
5416;SDS011;2731;50.754;12.990;2023-09-08T11:37:59;5.68;;;2.67;;
5416;SDS011;2731;50.754;12.990;2023-09-08T11:40:28;5.22;;;3.50;;
5416;SDS011;2731;50.754;12.990;2023-09-08T11:42:55;3.70;;;2.80;;
5416;SDS011;2731;50.754;12.990;2023-09-08T11:45:23;3.40;;;2.70;;
5416;SDS011;2731;50.754;12.990;2023-09-08T11:48:09;4.47;;;3.05;;
5416;SDS011;2731;50.754;12.990;2023-09-08T11:50:36;5.18;;;2.78;;
5416;SDS011;2731;50.754;12.990;2023-09-08T11:53:03;4.78;;;3.10;;
5416;SDS011;2731;50.754;12.990;2023-09-08T11:55:48;4.95;;;2.92;;
5416;SDS011;2731;50.754;12.990;2023-09-08T11:58:20;3.95;;;3.03;;
5416;SDS011;2731;50.754;12.990;2023-09-08T12:00:48;6.40;;;3.55;;
5416;SDS011;2731;50.754;12.990;2023-09-08T12:03:24;3.63;;;2.90;;
5416;SDS011;2731;50.754;12.990;2023-09-08T12:05:57;5.70;;;2.80;;
5416;SDS011;2731;50.754;12.990;2023-09-08T12:08:28;4.55;;;3.22;;
5416;SDS011;2731;50.754;12.990;2023-09-08T12:10:56;3.55;;;2.58;;
5416;SDS011;2731;50.754;12.990;2023-09-08T12:13:30;3.55;;;2.45;;
5416;SDS011;2731;50.754;12.990;2023-09-08T12:15:58;3.75;;;2.50;;
5416;SDS011;2731;50.754;12.990;2023-09-08T12:18:40;4.32;;;2.40;;
5416;SDS011;2731;50.754;12.990;2023-09-08T12:21:11;3.83;;;2.85;;
5416;SDS011;2731;50.754;12.990;2023-09-08T12:23:51;3.97;;;2.70;;
5416;SDS011;2731;50.754;12.990;2023-09-08T12:26:32;2.83;;;2.20;;
5416;SDS011;2731;50.754;12.990;2023-09-08T12:29:12;3.30;;;2.60;;
5416;SDS011;2731;50.754;12.990;2023-09-08T12:31:41;2.92;;;2.50;;
5416;SDS011;2731;50.754;12.990;2023-09-08T12:34:09;3.33;;;2.28;;
5416;SDS011;2731;50.754;12.990;2023-09-08T12:36:45;2.72;;;2.22;;
5416;SDS011;2731;50.754;12.990;2023-09-08T12:39:13;3.20;;;2.67;;
5416;SDS011;2731;50.754;12.990;2023-09-08T12:41:42;3.50;;;2.35;;
5416;SDS011;2731;50.754;12.990;2023-09-08T12:44:10;3.28;;;2.63;;
5416;SDS011;2731;50.754;12.990;2023-09-08T12:46:37;3.83;;;2.75;;
5416;SDS011;2731;50.754;12.990;2023-09-08T12:49:06;3.28;;;2.17;;
5416;SDS011;2731;50.754;12.990;2023-09-08T12:51:34;3.22;;;2.67;;
5416;SDS011;2731;50.754;12.990;2023-09-08T12:54:02;3.60;;;2.70;;
5416;SDS011;2731;50.754;12.990;2023-09-08T12:56:29;3.15;;;2.15;;
5416;SDS011;2731;50.754;12.990;2023-09-08T12:58:57;3.03;;;2.50;;
5416;SDS011;2731;50.754;12.990;2023-09-08T13:01:23;4.10;;;2.70;;
5416;SDS011;2731;50.754;12.990;2023-09-08T13:03:51;3.03;;;2.45;;
5416;SDS011;2731;50.754;12.990;2023-09-08T13:06:19;3.33;;;2.20;;
5416;SDS011;2731;50.754;12.990;2023-09-08T13:08:46;4.32;;;2.70;;
5416;SDS011;2731;50.754;12.990;2023-09-08T13:11:14;3.33;;;2.60;;
5416;SDS011;2731;50.754;12.990;2023-09-08T13:13:41;4.38;;;2.97;;
5416;SDS011;2731;50.754;12.990;2023-09-08T13:16:09;4.57;;;3.67;;
5416;SDS011;2731;50.754;12.990;2023-09-08T13:18:38;4.32;;;2.70;;
5416;SDS011;2731;50.754;12.990;2023-09-08T13:21:06;5.00;;;2.95;;
5416;SDS011;2731;50.754;12.990;2023-09-08T13:23:33;5.10;;;3.17;;
5416;SDS011;2731;50.754;12.990;2023-09-08T13:26:02;4.18;;;2.85;;
5416;SDS011;2731;50.754;12.990;2023-09-08T13:28:30;4.65;;;3.40;;
5416;SDS011;2731;50.754;12.990;2023-09-08T13:30:58;4.70;;;2.63;;
5416;SDS011;2731;50.754;12.990;2023-09-08T13:33:26;5.25;;;2.88;;
5416;SDS011;2731;50.754;12.990;2023-09-08T13:35:54;5.07;;;3.35;;
5416;SDS011;2731;50.754;12.990;2023-09-08T13:38:23;4.18;;;3.22;;
5416;SDS011;2731;50.754;12.990;2023-09-08T13:40:49;6.63;;;3.17;;
5416;SDS011;2731;50.754;12.990;2023-09-08T13:45:47;4.85;;;3.05;;
5416;SDS011;2731;50.754;12.990;2023-09-08T13:48:15;3.50;;;3.08;;
5416;SDS011;2731;50.754;12.990;2023-09-08T13:50:43;5.60;;;2.92;;
5416;SDS011;2731;50.754;12.990;2023-09-08T13:53:11;4.13;;;3.13;;
5416;SDS011;2731;50.754;12.990;2023-09-08T13:55:39;5.20;;;3.15;;
5416;SDS011;2731;50.754;12.990;2023-09-08T13:58:06;5.18;;;3.50;;
5416;SDS011;2731;50.754;12.990;2023-09-08T14:00:32;4.63;;;3.13;;
5416;SDS011;2731;50.754;12.990;2023-09-08T14:03:00;3.65;;;3.22;;
5416;SDS011;2731;50.754;12.990;2023-09-08T14:05:30;4.93;;;3.50;;
5416;SDS011;2731;50.754;12.990;2023-09-08T14:07:57;4.72;;;3.50;;
5416;SDS011;2731;50.754;12.990;2023-09-08T14:10:25;4.22;;;3.58;;
5416;SDS011;2731;50.754;12.990;2023-09-08T14:12:54;4.30;;;3.30;;
5416;SDS011;2731;50.754;12.990;2023-09-08T14:15:20;5.20;;;3.60;;
5416;SDS011;2731;50.754;12.990;2023-09-08T14:17:52;3.97;;;3.28;;
5416;SDS011;2731;50.754;12.990;2023-09-08T14:20:19;4.90;;;3.30;;
5416;SDS011;2731;50.754;12.990;2023-09-08T14:22:48;5.55;;;3.85;;
5416;SDS011;2731;50.754;12.990;2023-09-08T14:25:19;5.30;;;3.45;;
5416;SDS011;2731;50.754;12.990;2023-09-08T14:27:46;4.70;;;3.38;;
5416;SDS011;2731;50.754;12.990;2023-09-08T14:30:14;4.03;;;3.22;;
5416;SDS011;2731;50.754;12.990;2023-09-08T14:32:43;5.45;;;3.67;;
5416;SDS011;2731;50.754;12.990;2023-09-08T14:35:12;5.20;;;3.65;;
5416;SDS011;2731;50.754;12.990;2023-09-08T14:37:39;4.68;;;3.15;;
5416;SDS011;2731;50.754;12.990;2023-09-08T14:40:07;9.23;;;4.32;;
5416;SDS011;2731;50.754;12.990;2023-09-08T14:42:34;5.60;;;3.65;;
5416;SDS011;2731;50.754;12.990;2023-09-08T14:45:02;5.80;;;3.60;;
5416;SDS011;2731;50.754;12.990;2023-09-08T14:47:29;5.30;;;3.45;;
5416;SDS011;2731;50.754;12.990;2023-09-08T14:49:57;3.58;;;3.13;;
5416;SDS011;2731;50.754;12.990;2023-09-08T14:52:24;3.97;;;3.47;;
5416;SDS011;2731;50.754;12.990;2023-09-08T14:54:52;7.20;;;3.90;;
5416;SDS011;2731;50.754;12.990;2023-09-08T14:57:18;6.43;;;3.95;;
5416;SDS011;2731;50.754;12.990;2023-09-08T14:59:45;5.05;;;3.47;;
5416;SDS011;2731;50.754;12.990;2023-09-08T15:02:13;6.47;;;3.63;;
5416;SDS011;2731;50.754;12.990;2023-09-08T15:04:42;7.45;;;3.65;;
5416;SDS011;2731;50.754;12.990;2023-09-08T15:07:10;7.18;;;3.42;;
5416;SDS011;2731;50.754;12.990;2023-09-08T15:09:36;5.97;;;3.92;;
5416;SDS011;2731;50.754;12.990;2023-09-08T15:12:05;11.27;;;3.80;;
5416;SDS011;2731;50.754;12.990;2023-09-08T15:14:33;10.18;;;4.20;;
5416;SDS011;2731;50.754;12.990;2023-09-08T15:17:02;13.68;;;4.10;;
5416;SDS011;2731;50.754;12.990;2023-09-08T15:19:29;5.60;;;3.28;;
5416;SDS011;2731;50.754;12.990;2023-09-08T15:21:58;4.97;;;3.75;;
5416;SDS011;2731;50.754;12.990;2023-09-08T15:24:25;6.03;;;3.88;;
5416;SDS011;2731;50.754;12.990;2023-09-08T15:26:53;6.55;;;3.80;;
5416;SDS011;2731;50.754;12.990;2023-09-08T15:29:19;4.32;;;3.58;;
5416;SDS011;2731;50.754;12.990;2023-09-08T15:31:46;6.78;;;3.80;;
5416;SDS011;2731;50.754;12.990;2023-09-08T15:34:14;9.55;;;3.80;;
5416;SDS011;2731;50.754;12.990;2023-09-08T15:36:41;8.15;;;4.07;;
5416;SDS011;2731;50.754;12.990;2023-09-08T15:39:10;10.25;;;3.95;;
5416;SDS011;2731;50.754;12.990;2023-09-08T15:41:38;7.55;;;3.88;;
5416;SDS011;2731;50.754;12.990;2023-09-08T15:44:06;5.28;;;3.95;;
5416;SDS011;2731;50.754;12.990;2023-09-08T15:54:18;4.65;;;3.53;;
5416;SDS011;2731;50.754;12.990;2023-09-08T15:59:59;5.90;;;4.00;;
5416;SDS011;2731;50.754;12.990;2023-09-08T16:05:11;5.75;;;3.72;;
5416;SDS011;2731;50.754;12.990;2023-09-08T16:07:38;5.43;;;3.85;;
5416;SDS011;2731;50.754;12.990;2023-09-08T16:10:08;6.90;;;3.72;;
5416;SDS011;2731;50.754;12.990;2023-09-08T16:12:36;7.95;;;4.18;;
5416;SDS011;2731;50.754;12.990;2023-09-08T16:15:03;5.90;;;3.70;;
5416;SDS011;2731;50.754;12.990;2023-09-08T16:17:31;5.82;;;4.30;;
5416;SDS011;2731;50.754;12.990;2023-09-08T16:19:58;8.02;;;3.88;;
5416;SDS011;2731;50.754;12.990;2023-09-08T16:22:26;5.22;;;4.07;;
5416;SDS011;2731;50.754;12.990;2023-09-08T16:24:53;9.98;;;4.35;;
5416;SDS011;2731;50.754;12.990;2023-09-08T16:27:19;6.65;;;3.83;;
5416;SDS011;2731;50.754;12.990;2023-09-08T16:29:46;5.35;;;4.32;;
5416;SDS011;2731;50.754;12.990;2023-09-08T16:32:16;7.95;;;4.05;;
5416;SDS011;2731;50.754;12.990;2023-09-08T16:34:44;6.38;;;4.30;;
5416;SDS011;2731;50.754;12.990;2023-09-08T16:37:16;6.13;;;4.07;;
5416;SDS011;2731;50.754;12.990;2023-09-08T16:39:43;6.47;;;3.65;;
5416;SDS011;2731;50.754;12.990;2023-09-08T16:42:13;8.38;;;4.30;;
5416;SDS011;2731;50.754;12.990;2023-09-08T16:44:41;5.50;;;3.45;;
5416;SDS011;2731;50.754;12.990;2023-09-08T16:47:10;4.88;;;4.38;;
5416;SDS011;2731;50.754;12.990;2023-09-08T16:49:39;6.10;;;4.35;;
5416;SDS011;2731;50.754;12.990;2023-09-08T16:52:10;6.50;;;4.15;;
5416;SDS011;2731;50.754;12.990;2023-09-08T16:54:39;5.13;;;4.45;;
5416;SDS011;2731;50.754;12.990;2023-09-08T16:57:08;8.52;;;4.47;;
5416;SDS011;2731;50.754;12.990;2023-09-08T16:59:34;8.00;;;3.92;;
5416;SDS011;2731;50.754;12.990;2023-09-08T17:02:01;5.22;;;3.92;;
5416;SDS011;2731;50.754;12.990;2023-09-08T17:04:30;10.35;;;3.80;;
5416;SDS011;2731;50.754;12.990;2023-09-08T17:16:51;5.18;;;4.07;;
